sensor_id;sensor_type;location;lat;lon;timestamp;temperature;humidity
36652;DHT22;53334;51.976;20.144;2023-05-13T00:00:28;23.90;40.40
36652;DHT22;53334;51.976;20.144;2023-05-13T00:03:01;23.90;40.30
36652;DHT22;53334;51.976;20.144;2023-05-13T00:05:36;23.90;40.30
36652;DHT22;53334;51.976;20.144;2023-05-13T00:08:09;23.90;40.30
36652;DHT22;53334;51.976;20.144;2023-05-13T00:10:43;23.90;40.30
36652;DHT22;53334;51.976;20.144;2023-05-13T00:13:16;23.90;40.30
36652;DHT22;53334;51.976;20.144;2023-05-13T00:16:26;23.90;40.30
36652;DHT22;53334;51.976;20.144;2023-05-13T00:19:00;23.90;40.90
36652;DHT22;53334;51.976;20.144;2023-05-13T00:21:34;23.90;40.30
36652;DHT22;53334;51.976;20.144;2023-05-13T00:24:08;23.90;40.20
36652;DHT22;53334;51.976;20.144;2023-05-13T00:26:41;23.90;40.80
36652;DHT22;53334;51.976;20.144;2023-05-13T00:29:14;23.90;40.20
36652;DHT22;53334;51.976;20.144;2023-05-13T00:31:47;23.90;40.20
36652;DHT22;53334;51.976;20.144;2023-05-13T00:34:21;23.90;40.20
36652;DHT22;53334;51.976;20.144;2023-05-13T00:36:56;23.90;40.20
36652;DHT22;53334;51.976;20.144;2023-05-13T00:39:29;23.90;40.20
36652;DHT22;53334;51.976;20.144;2023-05-13T00:42:03;23.90;40.20
36652;DHT22;53334;51.976;20.144;2023-05-13T00:44:37;23.90;40.30
36652;DHT22;53334;51.976;20.144;2023-05-13T00:47:10;23.90;40.30
36652;DHT22;53334;51.976;20.144;2023-05-13T00:49:44;23.90;40.20
36652;DHT22;53334;51.976;20.144;2023-05-13T00:52:19;23.90;40.20
36652;DHT22;53334;51.976;20.144;2023-05-13T00:54:52;23.90;40.20
36652;DHT22;53334;51.976;20.144;2023-05-13T00:57:25;23.90;40.20
36652;DHT22;53334;51.976;20.144;2023-05-13T00:59:59;23.90;40.20
36652;DHT22;53334;51.976;20.144;2023-05-13T01:02:36;23.90;40.20
36652;DHT22;53334;51.976;20.144;2023-05-13T01:05:19;23.90;40.20
36652;DHT22;53334;51.976;20.144;2023-05-13T01:08:01;23.90;40.40
36652;DHT22;53334;51.976;20.144;2023-05-13T01:10:40;23.90;40.30
36652;DHT22;53334;51.976;20.144;2023-05-13T01:13:19;23.90;40.20
36652;DHT22;53334;51.976;20.144;2023-05-13T01:15:58;23.90;40.10
36652;DHT22;53334;51.976;20.144;2023-05-13T01:18:36;23.90;40.10
36652;DHT22;53334;51.976;20.144;2023-05-13T01:21:10;23.90;40.10
36652;DHT22;53334;51.976;20.144;2023-05-13T01:23:45;23.90;40.10
36652;DHT22;53334;51.976;20.144;2023-05-13T01:26:18;23.90;40.10
36652;DHT22;53334;51.976;20.144;2023-05-13T01:28:52;23.90;40.10
36652;DHT22;53334;51.976;20.144;2023-05-13T01:31:26;23.90;40.10
36652;DHT22;53334;51.976;20.144;2023-05-13T01:34:03;23.90;40.10
36652;DHT22;53334;51.976;20.144;2023-05-13T01:36:37;23.90;40.10
36652;DHT22;53334;51.976;20.144;2023-05-13T01:39:12;23.90;40.10
36652;DHT22;53334;51.976;20.144;2023-05-13T01:41:46;23.90;40.00
36652;DHT22;53334;51.976;20.144;2023-05-13T01:44:19;23.90;40.00
36652;DHT22;53334;51.976;20.144;2023-05-13T01:46:52;23.90;40.10
36652;DHT22;53334;51.976;20.144;2023-05-13T01:49:26;23.90;40.00
36652;DHT22;53334;51.976;20.144;2023-05-13T01:51:59;23.90;40.00
36652;DHT22;53334;51.976;20.144;2023-05-13T01:54:34;23.90;40.00
36652;DHT22;53334;51.976;20.144;2023-05-13T01:57:12;23.80;40.00
36652;DHT22;53334;51.976;20.144;2023-05-13T01:59:45;23.90;40.00
36652;DHT22;53334;51.976;20.144;2023-05-13T02:02:19;23.90;40.00
36652;DHT22;53334;51.976;20.144;2023-05-13T02:04:52;23.90;40.10
36652;DHT22;53334;51.976;20.144;2023-05-13T02:07:26;23.90;40.00
36652;DHT22;53334;51.976;20.144;2023-05-13T02:10:00;23.80;40.00
36652;DHT22;53334;51.976;20.144;2023-05-13T02:12:36;23.90;40.00
36652;DHT22;53334;51.976;20.144;2023-05-13T02:15:10;23.90;40.00
36652;DHT22;53334;51.976;20.144;2023-05-13T02:17:43;23.90;40.00
36652;DHT22;53334;51.976;20.144;2023-05-13T02:20:17;23.80;40.60
36652;DHT22;53334;51.976;20.144;2023-05-13T02:22:51;23.80;40.00
36652;DHT22;53334;51.976;20.144;2023-05-13T02:25:26;23.80;39.90
36652;DHT22;53334;51.976;20.144;2023-05-13T02:27:59;23.80;40.00
36652;DHT22;53334;51.976;20.144;2023-05-13T02:30:32;23.80;39.90
36652;DHT22;53334;51.976;20.144;2023-05-13T02:33:05;23.80;39.90
36652;DHT22;53334;51.976;20.144;2023-05-13T02:35:39;23.80;39.80
36652;DHT22;53334;51.976;20.144;2023-05-13T02:38:12;23.80;39.90
36652;DHT22;53334;51.976;20.144;2023-05-13T02:40:47;23.80;39.90
36652;DHT22;53334;51.976;20.144;2023-05-13T02:43:21;23.80;40.50
36652;DHT22;53334;51.976;20.144;2023-05-13T02:46:01;23.80;39.90
36652;DHT22;53334;51.976;20.144;2023-05-13T02:48:36;23.80;39.80
36652;DHT22;53334;51.976;20.144;2023-05-13T02:51:09;23.80;39.90
36652;DHT22;53334;51.976;20.144;2023-05-13T02:53:43;23.80;39.90
36652;DHT22;53334;51.976;20.144;2023-05-13T02:56:18;23.80;39.90
36652;DHT22;53334;51.976;20.144;2023-05-13T02:58:51;23.80;39.80
36652;DHT22;53334;51.976;20.144;2023-05-13T03:01:25;23.80;39.80
36652;DHT22;53334;51.976;20.144;2023-05-13T03:03:58;23.80;39.80
36652;DHT22;53334;51.976;20.144;2023-05-13T03:06:31;23.80;39.80
36652;DHT22;53334;51.976;20.144;2023-05-13T03:09:05;23.80;39.80
36652;DHT22;53334;51.976;20.144;2023-05-13T03:11:39;23.80;39.80
36652;DHT22;53334;51.976;20.144;2023-05-13T03:14:12;23.80;39.80
36652;DHT22;53334;51.976;20.144;2023-05-13T03:16:46;23.80;39.80
36652;DHT22;53334;51.976;20.144;2023-05-13T03:19:19;23.80;39.80
36652;DHT22;53334;51.976;20.144;2023-05-13T03:21:52;23.80;39.80
36652;DHT22;53334;51.976;20.144;2023-05-13T03:24:25;23.80;39.80
36652;DHT22;53334;51.976;20.144;2023-05-13T03:27:00;23.80;39.80
36652;DHT22;53334;51.976;20.144;2023-05-13T03:29:34;23.80;39.80
36652;DHT22;53334;51.976;20.144;2023-05-13T03:32:08;23.80;39.80
36652;DHT22;53334;51.976;20.144;2023-05-13T03:34:41;23.80;39.80
36652;DHT22;53334;51.976;20.144;2023-05-13T03:37:15;23.80;39.80
36652;DHT22;53334;51.976;20.144;2023-05-13T03:39:48;23.80;39.80
36652;DHT22;53334;51.976;20.144;2023-05-13T03:42:23;23.80;39.80
36652;DHT22;53334;51.976;20.144;2023-05-13T03:44:59;23.80;39.80
36652;DHT22;53334;51.976;20.144;2023-05-13T03:47:33;23.80;39.80
36652;DHT22;53334;51.976;20.144;2023-05-13T03:50:10;23.80;39.80
36652;DHT22;53334;51.976;20.144;2023-05-13T03:52:47;23.80;39.80
36652;DHT22;53334;51.976;20.144;2023-05-13T03:55:22;23.80;39.80
36652;DHT22;53334;51.976;20.144;2023-05-13T03:57:57;23.80;39.80
36652;DHT22;53334;51.976;20.144;2023-05-13T04:00:30;23.80;39.80
36652;DHT22;53334;51.976;20.144;2023-05-13T04:03:05;23.80;39.80
36652;DHT22;53334;51.976;20.144;2023-05-13T04:05:38;23.80;39.80
36652;DHT22;53334;51.976;20.144;2023-05-13T04:08:11;23.80;39.80
36652;DHT22;53334;51.976;20.144;2023-05-13T04:10:44;23.80;39.80
36652;DHT22;53334;51.976;20.144;2023-05-13T04:13:19;23.80;39.80
36652;DHT22;53334;51.976;20.144;2023-05-13T04:15:53;23.80;39.80
36652;DHT22;53334;51.976;20.144;2023-05-13T04:18:28;23.80;39.80
36652;DHT22;53334;51.976;20.144;2023-05-13T04:21:05;23.80;39.80
36652;DHT22;53334;51.976;20.144;2023-05-13T04:23:38;23.80;39.80
36652;DHT22;53334;51.976;20.144;2023-05-13T04:26:11;23.80;39.80
36652;DHT22;53334;51.976;20.144;2023-05-13T04:28:46;23.80;39.80
36652;DHT22;53334;51.976;20.144;2023-05-13T04:31:19;23.80;39.80
36652;DHT22;53334;51.976;20.144;2023-05-13T04:33:53;23.80;39.80
36652;DHT22;53334;51.976;20.144;2023-05-13T04:36:26;23.80;39.80
36652;DHT22;53334;51.976;20.144;2023-05-13T04:39:01;23.80;39.80
36652;DHT22;53334;51.976;20.144;2023-05-13T04:41:34;23.80;39.80
36652;DHT22;53334;51.976;20.144;2023-05-13T04:44:09;23.80;39.80
36652;DHT22;53334;51.976;20.144;2023-05-13T04:46:42;23.80;39.80
36652;DHT22;53334;51.976;20.144;2023-05-13T04:49:16;23.80;39.80
36652;DHT22;53334;51.976;20.144;2023-05-13T04:51:50;23.80;39.80
36652;DHT22;53334;51.976;20.144;2023-05-13T04:54:24;23.80;39.80
36652;DHT22;53334;51.976;20.144;2023-05-13T04:56:57;23.80;39.80
36652;DHT22;53334;51.976;20.144;2023-05-13T04:59:32;23.80;39.80
36652;DHT22;53334;51.976;20.144;2023-05-13T05:02:06;23.80;39.80
36652;DHT22;53334;51.976;20.144;2023-05-13T05:04:39;23.80;39.80
36652;DHT22;53334;51.976;20.144;2023-05-13T05:07:17;23.80;39.80
36652;DHT22;53334;51.976;20.144;2023-05-13T05:09:51;23.80;39.80
36652;DHT22;53334;51.976;20.144;2023-05-13T05:12:24;23.80;39.80
36652;DHT22;53334;51.976;20.144;2023-05-13T05:14:59;23.80;39.80
36652;DHT22;53334;51.976;20.144;2023-05-13T05:17:32;23.80;39.80
36652;DHT22;53334;51.976;20.144;2023-05-13T05:20:08;23.80;39.70
36652;DHT22;53334;51.976;20.144;2023-05-13T05:22:42;23.80;39.70
36652;DHT22;53334;51.976;20.144;2023-05-13T05:25:17;23.80;39.80
36652;DHT22;53334;51.976;20.144;2023-05-13T05:27:51;23.80;40.30
36652;DHT22;53334;51.976;20.144;2023-05-13T05:30:25;23.80;39.80
36652;DHT22;53334;51.976;20.144;2023-05-13T05:33:04;23.80;39.80
36652;DHT22;53334;51.976;20.144;2023-05-13T05:35:39;23.80;39.80
36652;DHT22;53334;51.976;20.144;2023-05-13T05:38:16;23.80;39.90
36652;DHT22;53334;51.976;20.144;2023-05-13T05:40:51;23.80;39.80
36652;DHT22;53334;51.976;20.144;2023-05-13T05:43:24;23.80;39.80
36652;DHT22;53334;51.976;20.144;2023-05-13T05:45:59;23.80;39.90
36652;DHT22;53334;51.976;20.144;2023-05-13T05:48:32;23.80;39.80
36652;DHT22;53334;51.976;20.144;2023-05-13T05:51:07;23.80;39.80
36652;DHT22;53334;51.976;20.144;2023-05-13T05:53:41;23.80;39.70
36652;DHT22;53334;51.976;20.144;2023-05-13T05:56:16;23.80;39.80
36652;DHT22;53334;51.976;20.144;2023-05-13T05:58:50;23.80;39.70
36652;DHT22;53334;51.976;20.144;2023-05-13T06:01:26;23.80;39.70
36652;DHT22;53334;51.976;20.144;2023-05-13T06:04:00;23.80;39.70
36652;DHT22;53334;51.976;20.144;2023-05-13T06:06:34;23.80;39.80
36652;DHT22;53334;51.976;20.144;2023-05-13T06:09:09;23.80;40.00
36652;DHT22;53334;51.976;20.144;2023-05-13T06:11:42;23.80;39.80
36652;DHT22;53334;51.976;20.144;2023-05-13T06:14:16;23.80;39.80
36652;DHT22;53334;51.976;20.144;2023-05-13T06:16:50;23.80;40.30
36652;DHT22;53334;51.976;20.144;2023-05-13T06:19:26;23.80;39.70
36652;DHT22;53334;51.976;20.144;2023-05-13T06:22:01;23.80;39.60
36652;DHT22;53334;51.976;20.144;2023-05-13T06:24:35;23.80;39.60
36652;DHT22;53334;51.976;20.144;2023-05-13T06:27:11;23.80;39.60
36652;DHT22;53334;51.976;20.144;2023-05-13T06:29:46;23.80;39.50
36652;DHT22;53334;51.976;20.144;2023-05-13T06:32:21;23.80;39.50
36652;DHT22;53334;51.976;20.144;2023-05-13T06:34:54;23.80;39.50
36652;DHT22;53334;51.976;20.144;2023-05-13T06:37:28;23.80;39.50
36652;DHT22;53334;51.976;20.144;2023-05-13T06:40:01;23.80;39.50
36652;DHT22;53334;51.976;20.144;2023-05-13T06:42:39;23.80;39.50
36652;DHT22;53334;51.976;20.144;2023-05-13T06:45:24;23.80;39.50
36652;DHT22;53334;51.976;20.144;2023-05-13T06:47:58;23.80;39.50
36652;DHT22;53334;51.976;20.144;2023-05-13T06:50:32;23.80;39.50
36652;DHT22;53334;51.976;20.144;2023-05-13T06:53:05;23.80;39.50
36652;DHT22;53334;51.976;20.144;2023-05-13T06:55:38;23.80;39.40
36652;DHT22;53334;51.976;20.144;2023-05-13T06:58:13;23.80;39.40
36652;DHT22;53334;51.976;20.144;2023-05-13T07:00:46;23.80;39.50
36652;DHT22;53334;51.976;20.144;2023-05-13T07:03:21;23.80;39.40
36652;DHT22;53334;51.976;20.144;2023-05-13T07:05:54;23.80;39.40
36652;DHT22;53334;51.976;20.144;2023-05-13T07:08:28;23.80;39.40
36652;DHT22;53334;51.976;20.144;2023-05-13T07:11:01;23.80;39.40
36652;DHT22;53334;51.976;20.144;2023-05-13T07:13:34;23.80;39.40
36652;DHT22;53334;51.976;20.144;2023-05-13T07:16:09;23.80;39.40
36652;DHT22;53334;51.976;20.144;2023-05-13T07:18:44;23.80;39.40
36652;DHT22;53334;51.976;20.144;2023-05-13T07:21:17;23.80;39.40
36652;DHT22;53334;51.976;20.144;2023-05-13T07:23:50;23.80;39.40
36652;DHT22;53334;51.976;20.144;2023-05-13T07:26:23;23.80;39.40
36652;DHT22;53334;51.976;20.144;2023-05-13T07:28:57;23.90;39.50
36652;DHT22;53334;51.976;20.144;2023-05-13T07:31:31;23.90;39.50
36652;DHT22;53334;51.976;20.144;2023-05-13T07:34:06;23.90;39.40
36652;DHT22;53334;51.976;20.144;2023-05-13T07:36:39;23.90;39.40
36652;DHT22;53334;51.976;20.144;2023-05-13T07:39:13;23.90;39.40
36652;DHT22;53334;51.976;20.144;2023-05-13T07:41:46;23.90;39.40
36652;DHT22;53334;51.976;20.144;2023-05-13T07:44:19;23.90;39.40
36652;DHT22;53334;51.976;20.144;2023-05-13T07:46:53;23.90;39.40
36652;DHT22;53334;51.976;20.144;2023-05-13T07:49:27;23.90;40.00
36652;DHT22;53334;51.976;20.144;2023-05-13T07:52:01;23.90;40.00
36652;DHT22;53334;51.976;20.144;2023-05-13T07:54:34;23.90;39.40
36652;DHT22;53334;51.976;20.144;2023-05-13T07:57:07;23.90;39.40
36652;DHT22;53334;51.976;20.144;2023-05-13T07:59:41;23.90;39.40
36652;DHT22;53334;51.976;20.144;2023-05-13T08:02:15;23.90;39.40
36652;DHT22;53334;51.976;20.144;2023-05-13T08:04:50;23.90;39.40
36652;DHT22;53334;51.976;20.144;2023-05-13T08:07:23;23.90;39.40
36652;DHT22;53334;51.976;20.144;2023-05-13T08:09:57;23.90;39.40
36652;DHT22;53334;51.976;20.144;2023-05-13T08:12:30;23.90;39.40
36652;DHT22;53334;51.976;20.144;2023-05-13T08:15:04;23.90;39.40
36652;DHT22;53334;51.976;20.144;2023-05-13T08:17:38;23.90;39.40
36652;DHT22;53334;51.976;20.144;2023-05-13T08:20:13;23.90;39.30
36652;DHT22;53334;51.976;20.144;2023-05-13T08:22:46;23.90;39.30
36652;DHT22;53334;51.976;20.144;2023-05-13T08:25:19;23.90;39.30
36652;DHT22;53334;51.976;20.144;2023-05-13T08:27:53;23.90;39.30
36652;DHT22;53334;51.976;20.144;2023-05-13T08:30:27;23.90;39.30
36652;DHT22;53334;51.976;20.144;2023-05-13T08:33:00;23.90;39.30
36652;DHT22;53334;51.976;20.144;2023-05-13T08:35:34;23.90;39.30
36652;DHT22;53334;51.976;20.144;2023-05-13T08:38:08;23.90;39.30
36652;DHT22;53334;51.976;20.144;2023-05-13T08:40:41;23.90;39.30
36652;DHT22;53334;51.976;20.144;2023-05-13T08:43:15;23.90;39.30
36652;DHT22;53334;51.976;20.144;2023-05-13T08:45:48;23.90;39.30
36652;DHT22;53334;51.976;20.144;2023-05-13T08:48:24;23.90;39.30
36652;DHT22;53334;51.976;20.144;2023-05-13T08:50:59;23.90;39.30
36652;DHT22;53334;51.976;20.144;2023-05-13T08:53:34;24.00;39.40
36652;DHT22;53334;51.976;20.144;2023-05-13T08:56:08;24.00;39.40
36652;DHT22;53334;51.976;20.144;2023-05-13T08:58:41;24.00;39.30
36652;DHT22;53334;51.976;20.144;2023-05-13T09:01:16;24.00;39.30
36652;DHT22;53334;51.976;20.144;2023-05-13T09:03:54;23.90;39.30
36652;DHT22;53334;51.976;20.144;2023-05-13T09:06:31;24.00;39.30
36652;DHT22;53334;51.976;20.144;2023-05-13T09:09:04;24.00;39.30
36652;DHT22;53334;51.976;20.144;2023-05-13T09:11:38;24.00;39.30
36652;DHT22;53334;51.976;20.144;2023-05-13T09:14:17;24.00;39.20
36652;DHT22;53334;51.976;20.144;2023-05-13T09:16:51;24.00;39.30
36652;DHT22;53334;51.976;20.144;2023-05-13T09:19:27;23.90;39.20
36652;DHT22;53334;51.976;20.144;2023-05-13T09:22:02;24.00;39.20
36652;DHT22;53334;51.976;20.144;2023-05-13T09:24:35;24.00;39.20
36652;DHT22;53334;51.976;20.144;2023-05-13T09:27:09;24.00;39.20
36652;DHT22;53334;51.976;20.144;2023-05-13T09:29:42;24.00;39.20
36652;DHT22;53334;51.976;20.144;2023-05-13T09:32:15;24.00;39.20
36652;DHT22;53334;51.976;20.144;2023-05-13T09:34:49;24.00;39.20
36652;DHT22;53334;51.976;20.144;2023-05-13T09:37:23;24.00;39.20
36652;DHT22;53334;51.976;20.144;2023-05-13T09:39:57;24.00;39.20
36652;DHT22;53334;51.976;20.144;2023-05-13T09:42:30;24.00;39.20
36652;DHT22;53334;51.976;20.144;2023-05-13T09:45:04;24.00;39.20
36652;DHT22;53334;51.976;20.144;2023-05-13T09:47:39;24.00;39.20
36652;DHT22;53334;51.976;20.144;2023-05-13T09:50:12;24.00;39.20
36652;DHT22;53334;51.976;20.144;2023-05-13T09:52:48;24.00;39.70
36652;DHT22;53334;51.976;20.144;2023-05-13T09:55:21;24.00;39.20
36652;DHT22;53334;51.976;20.144;2023-05-13T09:57:55;24.00;39.20
36652;DHT22;53334;51.976;20.144;2023-05-13T10:00:28;24.00;39.10
36652;DHT22;53334;51.976;20.144;2023-05-13T10:03:04;24.00;39.20
36652;DHT22;53334;51.976;20.144;2023-05-13T10:05:39;24.00;39.10
36652;DHT22;53334;51.976;20.144;2023-05-13T10:08:14;24.00;39.20
36652;DHT22;53334;51.976;20.144;2023-05-13T10:10:50;24.00;39.20
36652;DHT22;53334;51.976;20.144;2023-05-13T10:13:27;24.00;39.20
36652;DHT22;53334;51.976;20.144;2023-05-13T10:16:03;24.00;39.20
36652;DHT22;53334;51.976;20.144;2023-05-13T10:18:36;24.10;39.20
36652;DHT22;53334;51.976;20.144;2023-05-13T10:21:11;24.00;39.20
36652;DHT22;53334;51.976;20.144;2023-05-13T10:23:46;24.00;39.20
36652;DHT22;53334;51.976;20.144;2023-05-13T10:26:23;24.00;39.20
36652;DHT22;53334;51.976;20.144;2023-05-13T10:28:56;24.00;39.20
36652;DHT22;53334;51.976;20.144;2023-05-13T10:31:30;24.00;39.20
36652;DHT22;53334;51.976;20.144;2023-05-13T10:34:03;24.00;39.80
36652;DHT22;53334;51.976;20.144;2023-05-13T10:36:48;24.00;39.20
36652;DHT22;53334;51.976;20.144;2023-05-13T10:39:51;24.00;39.20
36652;DHT22;53334;51.976;20.144;2023-05-13T10:42:39;24.00;39.20
36652;DHT22;53334;51.976;20.144;2023-05-13T10:45:15;24.00;39.20
36652;DHT22;53334;51.976;20.144;2023-05-13T10:47:49;24.00;39.20
36652;DHT22;53334;51.976;20.144;2023-05-13T10:50:25;24.00;39.20
36652;DHT22;53334;51.976;20.144;2023-05-13T10:52:58;24.00;39.30
36652;DHT22;53334;51.976;20.144;2023-05-13T10:55:39;24.00;39.30
36652;DHT22;53334;51.976;20.144;2023-05-13T10:58:17;24.10;39.90
36652;DHT22;53334;51.976;20.144;2023-05-13T11:00:53;24.00;39.30
36652;DHT22;53334;51.976;20.144;2023-05-13T11:03:51;24.00;39.30
36652;DHT22;53334;51.976;20.144;2023-05-13T11:06:29;24.10;39.30
36652;DHT22;53334;51.976;20.144;2023-05-13T11:09:06;24.10;39.30
36652;DHT22;53334;51.976;20.144;2023-05-13T11:11:44;24.10;39.40
36652;DHT22;53334;51.976;20.144;2023-05-13T11:14:20;24.10;39.40
36652;DHT22;53334;51.976;20.144;2023-05-13T11:17:06;24.10;39.40
36652;DHT22;53334;51.976;20.144;2023-05-13T11:19:45;24.10;39.30
36652;DHT22;53334;51.976;20.144;2023-05-13T11:22:19;24.10;39.30
36652;DHT22;53334;51.976;20.144;2023-05-13T11:25:03;24.10;39.30
36652;DHT22;53334;51.976;20.144;2023-05-13T11:27:40;24.10;39.30
36652;DHT22;53334;51.976;20.144;2023-05-13T11:30:21;24.00;39.30
36652;DHT22;53334;51.976;20.144;2023-05-13T11:32:56;24.00;39.30
36652;DHT22;53334;51.976;20.144;2023-05-13T11:35:31;24.10;39.40
36652;DHT22;53334;51.976;20.144;2023-05-13T11:38:04;24.10;39.40
36652;DHT22;53334;51.976;20.144;2023-05-13T11:40:37;24.10;39.30
36652;DHT22;53334;51.976;20.144;2023-05-13T11:43:18;24.10;39.30
36652;DHT22;53334;51.976;20.144;2023-05-13T11:45:52;24.10;39.40
36652;DHT22;53334;51.976;20.144;2023-05-13T11:48:26;24.10;39.40
36652;DHT22;53334;51.976;20.144;2023-05-13T11:51:01;24.10;39.40
36652;DHT22;53334;51.976;20.144;2023-05-13T11:53:34;24.10;39.40
36652;DHT22;53334;51.976;20.144;2023-05-13T11:56:08;24.10;39.40
36652;DHT22;53334;51.976;20.144;2023-05-13T11:58:45;24.10;39.40
36652;DHT22;53334;51.976;20.144;2023-05-13T12:01:18;24.00;39.40
36652;DHT22;53334;51.976;20.144;2023-05-13T12:04:00;24.10;39.40
36652;DHT22;53334;51.976;20.144;2023-05-13T12:06:34;24.10;39.40
36652;DHT22;53334;51.976;20.144;2023-05-13T12:09:07;24.00;39.40
36652;DHT22;53334;51.976;20.144;2023-05-13T12:11:41;24.10;39.40
36652;DHT22;53334;51.976;20.144;2023-05-13T12:14:16;24.10;39.50
36652;DHT22;53334;51.976;20.144;2023-05-13T12:16:49;24.10;39.50
36652;DHT22;53334;51.976;20.144;2023-05-13T12:19:23;24.10;39.50
36652;DHT22;53334;51.976;20.144;2023-05-13T12:21:58;24.10;39.50
36652;DHT22;53334;51.976;20.144;2023-05-13T12:24:32;24.10;39.50
36652;DHT22;53334;51.976;20.144;2023-05-13T12:27:06;24.10;39.50
36652;DHT22;53334;51.976;20.144;2023-05-13T12:29:44;24.10;39.50
36652;DHT22;53334;51.976;20.144;2023-05-13T12:32:17;24.10;39.50
36652;DHT22;53334;51.976;20.144;2023-05-13T12:34:50;24.10;39.50
36652;DHT22;53334;51.976;20.144;2023-05-13T12:37:24;24.10;39.50
36652;DHT22;53334;51.976;20.144;2023-05-13T12:40:08;24.10;39.50
36652;DHT22;53334;51.976;20.144;2023-05-13T12:42:43;24.10;39.50
36652;DHT22;53334;51.976;20.144;2023-05-13T12:45:18;24.10;40.10
36652;DHT22;53334;51.976;20.144;2023-05-13T12:47:54;24.10;39.50
36652;DHT22;53334;51.976;20.144;2023-05-13T12:50:27;24.10;39.50
36652;DHT22;53334;51.976;20.144;2023-05-13T12:53:00;24.10;39.50
36652;DHT22;53334;51.976;20.144;2023-05-13T12:55:34;24.10;39.50
36652;DHT22;53334;51.976;20.144;2023-05-13T12:58:11;24.10;39.50
36652;DHT22;53334;51.976;20.144;2023-05-13T13:00:46;24.10;39.60
36652;DHT22;53334;51.976;20.144;2023-05-13T13:03:19;24.10;39.60
36652;DHT22;53334;51.976;20.144;2023-05-13T13:05:55;24.10;39.60
36652;DHT22;53334;51.976;20.144;2023-05-13T13:11:26;24.10;39.60
36652;DHT22;53334;51.976;20.144;2023-05-13T13:14:00;24.10;39.60
36652;DHT22;53334;51.976;20.144;2023-05-13T13:16:35;24.10;39.60
36652;DHT22;53334;51.976;20.144;2023-05-13T13:19:08;24.10;39.60
36652;DHT22;53334;51.976;20.144;2023-05-13T13:21:42;24.10;39.60
36652;DHT22;53334;51.976;20.144;2023-05-13T13:24:15;24.10;39.60
36652;DHT22;53334;51.976;20.144;2023-05-13T13:26:48;24.10;40.20
36652;DHT22;53334;51.976;20.144;2023-05-13T13:29:22;24.10;39.60
36652;DHT22;53334;51.976;20.144;2023-05-13T13:31:56;24.10;39.60
36652;DHT22;53334;51.976;20.144;2023-05-13T13:34:30;24.10;39.60
36652;DHT22;53334;51.976;20.144;2023-05-13T13:37:03;24.10;39.60
36652;DHT22;53334;51.976;20.144;2023-05-13T13:39:37;24.10;39.60
36652;DHT22;53334;51.976;20.144;2023-05-13T13:42:10;24.10;39.60
36652;DHT22;53334;51.976;20.144;2023-05-13T13:44:43;24.10;39.60
36652;DHT22;53334;51.976;20.144;2023-05-13T13:47:18;24.10;39.70
36652;DHT22;53334;51.976;20.144;2023-05-13T13:49:51;24.10;39.60
36652;DHT22;53334;51.976;20.144;2023-05-13T13:52:24;24.10;39.60
36652;DHT22;53334;51.976;20.144;2023-05-13T13:54:59;24.10;39.60
36652;DHT22;53334;51.976;20.144;2023-05-13T13:57:32;24.10;39.60
36652;DHT22;53334;51.976;20.144;2023-05-13T14:00:07;24.10;39.60
36652;DHT22;53334;51.976;20.144;2023-05-13T14:02:42;24.10;39.60
36652;DHT22;53334;51.976;20.144;2023-05-13T14:05:16;24.10;40.20
36652;DHT22;53334;51.976;20.144;2023-05-13T14:07:49;24.10;39.60
36652;DHT22;53334;51.976;20.144;2023-05-13T14:10:25;24.10;39.60
36652;DHT22;53334;51.976;20.144;2023-05-13T14:12:58;24.10;39.60
36652;DHT22;53334;51.976;20.144;2023-05-13T14:15:31;24.10;40.20
36652;DHT22;53334;51.976;20.144;2023-05-13T14:18:11;24.10;39.60
36652;DHT22;53334;51.976;20.144;2023-05-13T14:20:44;24.10;39.60
36652;DHT22;53334;51.976;20.144;2023-05-13T14:23:18;24.10;39.60
36652;DHT22;53334;51.976;20.144;2023-05-13T14:25:52;24.10;39.60
36652;DHT22;53334;51.976;20.144;2023-05-13T14:28:25;24.10;39.60
36652;DHT22;53334;51.976;20.144;2023-05-13T14:30:58;24.10;39.60
36652;DHT22;53334;51.976;20.144;2023-05-13T14:33:33;24.10;39.60
36652;DHT22;53334;51.976;20.144;2023-05-13T14:36:07;24.10;39.60
36652;DHT22;53334;51.976;20.144;2023-05-13T14:38:42;24.10;39.60
36652;DHT22;53334;51.976;20.144;2023-05-13T14:41:15;24.10;39.60
36652;DHT22;53334;51.976;20.144;2023-05-13T14:43:50;24.10;39.60
36652;DHT22;53334;51.976;20.144;2023-05-13T14:46:24;24.10;39.60
36652;DHT22;53334;51.976;20.144;2023-05-13T14:48:58;24.10;39.50
36652;DHT22;53334;51.976;20.144;2023-05-13T14:51:32;24.10;39.60
36652;DHT22;53334;51.976;20.144;2023-05-13T14:54:05;24.10;39.50
36652;DHT22;53334;51.976;20.144;2023-05-13T14:56:38;24.10;39.50
36652;DHT22;53334;51.976;20.144;2023-05-13T14:59:12;24.10;39.50
36652;DHT22;53334;51.976;20.144;2023-05-13T15:01:46;24.10;39.50
36652;DHT22;53334;51.976;20.144;2023-05-13T15:04:20;24.10;39.50
36652;DHT22;53334;51.976;20.144;2023-05-13T15:06:54;24.10;39.50
36652;DHT22;53334;51.976;20.144;2023-05-13T15:09:27;24.10;39.50
36652;DHT22;53334;51.976;20.144;2023-05-13T15:12:00;24.10;39.50
36652;DHT22;53334;51.976;20.144;2023-05-13T15:14:34;24.10;39.50
36652;DHT22;53334;51.976;20.144;2023-05-13T15:17:07;24.10;39.50
36652;DHT22;53334;51.976;20.144;2023-05-13T15:19:44;24.10;39.50
36652;DHT22;53334;51.976;20.144;2023-05-13T15:22:17;24.10;39.50
36652;DHT22;53334;51.976;20.144;2023-05-13T15:24:50;24.10;39.50
36652;DHT22;53334;51.976;20.144;2023-05-13T15:27:25;24.10;39.50
36652;DHT22;53334;51.976;20.144;2023-05-13T15:29:58;24.10;39.50
36652;DHT22;53334;51.976;20.144;2023-05-13T15:32:32;24.20;40.10
36652;DHT22;53334;51.976;20.144;2023-05-13T15:35:07;24.10;39.50
36652;DHT22;53334;51.976;20.144;2023-05-13T15:37:41;24.10;39.50
36652;DHT22;53334;51.976;20.144;2023-05-13T15:40:14;24.20;39.50
36652;DHT22;53334;51.976;20.144;2023-05-13T15:42:47;24.10;39.50
36652;DHT22;53334;51.976;20.144;2023-05-13T15:45:21;24.10;39.50
36652;DHT22;53334;51.976;20.144;2023-05-13T15:47:54;24.10;39.50
36652;DHT22;53334;51.976;20.144;2023-05-13T15:50:29;24.20;39.60
36652;DHT22;53334;51.976;20.144;2023-05-13T15:53:02;24.10;39.50
36652;DHT22;53334;51.976;20.144;2023-05-13T15:55:35;24.10;39.50
36652;DHT22;53334;51.976;20.144;2023-05-13T15:58:10;24.10;39.50
36652;DHT22;53334;51.976;20.144;2023-05-13T16:00:43;24.10;40.10
36652;DHT22;53334;51.976;20.144;2023-05-13T16:03:16;24.10;39.50